Time;durP1;ratioP1;P1;durP2;ratioP2;P2;SDS_P1;SDS_P2;PMS_P1;PMS_P2;Temp;Humidity;BMP_temperature;BMP_pressure;BME280_temperature;BME280_humidity;BME280_pressure;Samples;Min_cycle;Max_cycle;Signal;HPM_P1;HPM_P2
2024/03/16 00:00:40;;;;;;;35.60;25.00;;;;;;;5.31;100.00;100686.06;87258;277;136861;-74
2024/03/16 00:02:42;;;;;;;31.10;22.60;;;;;;;5.31;100.00;100686.42;87439;269;24843;-73
2024/03/16 00:04:44;;;;;;;36.80;25.10;;;;;;;5.30;100.00;100684.34;87147;268;137242;-74
2024/03/16 00:06:46;;;;;;;39.70;26.10;;;;;;;5.28;100.00;100684.36;87252;274;22558;-75
2024/03/16 00:08:47;;;;;;;38.30;26.00;;;;;;;5.26;100.00;100686.33;87082;270;137165;-73
2024/03/16 00:10:50;;;;;;;34.50;24.00;;;;;;;5.25;100.00;100687.61;87315;275;22576;-73
2024/03/16 00:12:52;;;;;;;38.00;26.50;;;;;;;5.24;100.00;100685.05;87122;267;136802;-73
2024/03/16 00:14:55;;;;;;;38.80;27.20;;;;;;;5.22;100.00;100686.16;87351;266;25262;-74
2024/03/16 00:16:58;;;;;;;37.10;25.30;;;;;;;5.20;100.00;100684.09;87235;271;138295;-73
2024/03/16 00:19:00;;;;;;;43.20;26.00;;;;;;;5.19;100.00;100683.64;87430;269;26198;-73
2024/03/16 00:21:03;;;;;;;37.40;26.10;;;;;;;5.17;100.00;100684.30;87242;266;137231;-74
2024/03/16 00:23:04;;;;;;;41.70;27.00;;;;;;;5.18;100.00;100684.97;87337;262;22638;-73
2024/03/16 00:25:06;;;;;;;39.80;26.70;;;;;;;5.19;100.00;100684.52;87201;270;137078;-74
2024/03/16 00:27:09;;;;;;;38.50;26.90;;;;;;;5.17;100.00;100682.00;87588;265;25121;-76
2024/03/16 00:29:11;;;;;;;44.60;28.20;;;;;;;5.14;100.00;100680.74;87230;269;137456;-74
2024/03/16 00:31:13;;;;;;;36.20;26.10;;;;;;;5.11;100.00;100680.80;87372;271;22552;-73
2024/03/16 00:33:17;;;;;;;41.40;27.30;;;;;;;5.11;100.00;100680.14;87457;269;137675;-73
2024/03/16 00:35:19;;;;;;;39.00;26.40;;;;;;;5.13;100.00;100681.41;87457;266;26307;-74
2024/03/16 00:37:21;;;;;;;35.10;26.20;;;;;;;5.14;100.00;100675.95;87368;267;137363;-72
2024/03/16 00:39:23;;;;;;;41.40;26.10;;;;;;;5.16;100.00;100677.59;87335;271;22660;-73
2024/03/16 00:41:26;;;;;;;37.10;26.00;;;;;;;5.16;100.00;100677.04;87240;265;136986;-76
2024/03/16 00:43:28;;;;;;;38.20;27.50;;;;;;;5.14;100.00;100672.42;87299;269;22876;-77
2024/03/16 00:45:30;;;;;;;38.50;24.80;;;;;;;5.13;100.00;100670.59;87322;273;138001;-74
2024/03/16 00:47:32;;;;;;;35.70;25.80;;;;;;;5.11;100.00;100671.29;87327;266;22554;-74
2024/03/16 00:49:36;;;;;;;37.20;26.30;;;;;;;5.10;100.00;100668.61;87314;266;137086;-73
2024/03/16 00:51:38;;;;;;;40.10;26.70;;;;;;;5.08;100.00;100669.88;87445;271;21525;-74
2024/03/16 00:53:43;;;;;;;36.60;26.10;;;;;;;5.10;100.00;100670.08;87217;274;137324;-72
2024/03/16 00:55:45;;;;;;;34.10;24.20;;;;;;;5.13;100.00;100671.15;87334;274;22568;-74
2024/03/16 00:57:47;;;;;;;33.20;21.50;;;;;;;5.18;100.00;100671.70;87133;270;137180;-73
2024/03/16 00:59:49;;;;;;;31.60;23.40;;;;;;;5.19;100.00;100675.29;87112;267;25156;-73
2024/03/16 01:01:53;;;;;;;34.20;23.90;;;;;;;5.18;100.00;100673.66;87242;267;138333;-74
2024/03/16 01:03:55;;;;;;;32.10;22.20;;;;;;;5.17;100.00;100672.19;87441;266;22559;-74
2024/03/16 01:05:57;;;;;;;31.30;23.50;;;;;;;5.17;100.00;100670.63;87208;270;137494;-74
2024/03/16 01:07:58;;;;;;;36.70;23.50;;;;;;;5.17;100.00;100671.45;87296;273;25251;-74
2024/03/16 01:10:00;;;;;;;30.20;21.60;;;;;;;5.17;100.00;100672.88;87413;271;137518;-74
2024/03/16 01:12:03;;;;;;;33.10;22.10;;;;;;;5.20;100.00;100674.05;87277;271;25165;-74
2024/03/16 01:14:05;;;;;;;31.90;20.70;;;;;;;5.22;100.00;100678.59;87252;270;22559;-73
2024/03/16 01:16:07;;;;;;;28.40;19.40;;;;;;;5.20;100.00;100676.27;87232;270;137835;-73
2024/03/16 01:18:09;;;;;;;30.90;21.70;;;;;;;5.18;100.00;100678.08;87624;270;22559;-72
2024/03/16 01:20:12;;;;;;;30.60;20.50;;;;;;;5.16;100.00;100676.70;87144;274;137348;-74
2024/03/16 01:22:14;;;;;;;28.50;20.90;;;;;;;5.17;100.00;100675.16;87309;278;22690;-73
2024/03/16 01:24:17;;;;;;;26.00;19.30;;;;;;;5.18;100.00;100672.94;87173;270;137278;-73
2024/03/16 01:26:19;;;;;;;27.80;19.10;;;;;;;5.23;100.00;100676.89;87409;278;23704;-74
2024/03/16 01:28:21;;;;;;;27.50;20.30;;;;;;;5.27;100.00;100674.40;87278;274;138710;-72
2024/03/16 01:30:24;;;;;;;24.60;17.80;;;;;;;5.27;100.00;100676.85;87265;278;23735;-74
2024/03/16 01:32:26;;;;;;;31.70;18.80;;;;;;;5.26;100.00;100676.41;87386;270;136942;-70
2024/03/16 01:34:28;;;;;;;26.70;17.70;;;;;;;5.24;100.00;100674.99;87319;270;25697;-74
2024/03/16 01:36:30;;;;;;;32.10;20.90;;;;;;;5.22;100.00;100671.33;87294;278;137436;-73
2024/03/16 01:38:32;;;;;;;22.70;16.60;;;;;;;5.21;100.00;100675.64;87275;279;22590;-75
2024/03/16 01:40:34;;;;;;;26.50;19.10;;;;;;;5.21;100.00;100676.90;87131;270;138350;-73
2024/03/16 01:42:36;;;;;;;30.90;18.70;;;;;;;5.20;100.00;100675.73;87289;271;23387;-73
2024/03/16 01:44:39;;;;;;;27.60;18.50;;;;;;;5.22;100.00;100675.92;87340;271;137050;-74
2024/03/16 01:46:41;;;;;;;27.40;18.40;;;;;;;5.23;100.00;100676.73;87274;274;22558;-74
2024/03/16 01:48:43;;;;;;;30.70;20.70;;;;;;;5.25;100.00;100675.24;87245;269;137078;-73
2024/03/16 01:50:45;;;;;;;29.60;20.70;;;;;;;5.26;100.00;100672.35;87389;270;22565;-72
2024/03/16 01:52:48;;;;;;;31.30;18.20;;;;;;;5.26;100.00;100675.74;87140;266;138431;-73
2024/03/16 01:54:50;;;;;;;32.20;19.90;;;;;;;5.22;100.00;100673.52;87314;262;22581;-74
2024/03/16 01:56:52;;;;;;;30.90;21.60;;;;;;;5.18;100.00;100674.24;87184;267;136981;-74
2024/03/16 01:58:54;;;;;;;32.20;19.60;;;;;;;5.13;100.00;100673.23;87295;270;25099;-73
2024/03/16 02:00:56;;;;;;;27.50;20.00;;;;;;;5.12;100.00;100676.73;87255;269;137024;-75
2024/03/16 02:02:59;;;;;;;31.70;20.40;;;;;;;5.12;100.00;100678.69;87548;274;22670;-73
2024/03/16 02:05:03;;;;;;;36.70;24.40;;;;;;;5.09;100.00;100680.02;87095;266;137632;-75
2024/03/16 02:07:08;;;;;;;30.70;20.30;;;;;;;5.05;100.00;100675.78;87404;266;22557;-71
2024/03/16 02:09:11;;;;;;;30.40;20.00;;;;;;;5.03;100.00;100676.95;87077;270;137344;-73
2024/03/16 02:11:13;;;;;;;34.20;21.40;;;;;;;5.03;100.00;100680.19;87200;270;22564;-72
2024/03/16 02:13:14;;;;;;;33.50;21.60;;;;;;;5.01;100.00;100678.75;87216;271;138881;-74
2024/03/16 02:16:20;;;;;;;33.20;20.60;;;;;;;4.95;100.00;100678.35;85018;304;602643;-73
2024/03/16 02:18:22;;;;;;;34.00;21.30;;;;;;;4.99;100.00;100679.55;86513;282;22571;-79
2024/03/16 02:20:26;;;;;;;33.50;19.70;;;;;;;4.99;100.00;100679.52;86461;279;136410;-74
2024/03/16 02:22:29;;;;;;;34.30;20.70;;;;;;;4.99;100.00;100685.12;86668;285;22705;-74
2024/03/16 02:24:32;;;;;;;32.20;20.30;;;;;;;5.01;100.00;100686.17;86822;271;137861;-73
2024/03/16 02:26:34;;;;;;;31.90;21.50;;;;;;;5.05;100.00;100684.72;86827;283;22583;-74
2024/03/16 02:28:37;;;;;;;38.40;21.00;;;;;;;5.09;100.00;100683.84;87021;283;136761;-74
2024/03/16 02:30:38;;;;;;;31.20;20.60;;;;;;;5.13;100.00;100684.15;86347;278;795106;-73
2024/03/16 02:32:40;;;;;;;34.60;22.50;;;;;;;5.19;100.00;100684.34;86838;282;136708;-72
2024/03/16 02:34:43;;;;;;;32.80;22.30;;;;;;;5.18;100.00;100687.38;87047;281;25125;-74
2024/03/16 02:36:45;;;;;;;33.30;23.00;;;;;;;5.17;100.00;100688.07;86955;282;138320;-74
2024/03/16 02:38:48;;;;;;;33.70;22.70;;;;;;;5.15;100.00;100689.44;86818;275;25119;-72
2024/03/16 02:40:49;;;;;;;32.60;22.40;;;;;;;5.14;100.00;100689.74;86955;282;136878;-75
2024/03/16 02:42:51;;;;;;;32.40;22.30;;;;;;;5.15;100.00;100690.33;87090;273;24171;-73
2024/03/16 02:44:53;;;;;;;30.40;22.40;;;;;;;5.15;100.00;100694.92;86905;275;136854;-74
2024/03/16 02:46:56;;;;;;;28.90;20.00;;;;;;;5.13;100.00;100688.91;87050;275;22564;-72
2024/03/16 02:48:58;;;;;;;35.20;22.40;;;;;;;5.13;100.00;100691.56;87002;281;138185;-76
2024/03/16 02:51:01;;;;;;;29.60;22.70;;;;;;;5.13;100.00;100689.25;87192;273;22585;-74
2024/03/16 02:53:03;;;;;;;31.20;20.80;;;;;;;5.13;100.00;100690.36;86893;267;136958;-73
2024/03/16 02:55:08;;;;;;;30.40;21.40;;;;;;;5.13;100.00;100689.84;86775;279;22570;-73
2024/03/16 02:57:10;;;;;;;26.40;21.30;;;;;;;5.13;100.00;100688.95;86812;271;137887;-73
2024/03/16 02:59:12;;;;;;;34.20;21.50;;;;;;;5.13;100.00;100687.00;87002;282;25188;-73
2024/03/16 03:01:14;;;;;;;28.80;20.00;;;;;;;5.12;100.00;100687.09;86964;275;136810;-73
2024/03/16 03:03:17;;;;;;;24.90;20.10;;;;;;;5.11;100.00;100686.84;86872;283;25086;-71
2024/03/16 03:05:20;;;;;;;24.90;18.50;;;;;;;5.08;100.00;100687.16;86832;280;136818;-72
2024/03/16 03:07:24;;;;;;;25.60;18.00;;;;;;;5.06;100.00;100686.55;86989;279;25582;-74
2024/03/16 03:09:26;;;;;;;27.00;19.70;;;;;;;5.05;100.00;100688.24;86946;275;136949;-73
2024/03/16 03:11:28;;;;;;;22.10;16.50;;;;;;;5.05;100.00;100687.42;87116;275;22570;-74
2024/03/16 03:13:30;;;;;;;29.00;17.30;;;;;;;5.03;100.00;100687.16;87131;281;136891;-72
2024/03/16 03:15:35;;;;;;;22.70;17.60;;;;;;;5.03;100.00;100690.77;87128;278;24138;-73
2024/03/16 03:17:38;;;;;;;24.80;17.20;;;;;;;5.04;100.00;100692.95;87362;275;136565;-73
2024/03/16 03:19:42;;;;;;;28.80;19.00;;;;;;;5.04;100.00;100693.15;87313;281;25220;-72
2024/03/16 03:21:46;;;;;;;23.00;17.60;;;;;;;5.03;100.00;100695.15;87239;278;136876;-72
2024/03/16 03:23:47;;;;;;;22.60;16.80;;;;;;;5.03;100.00;100697.83;87222;278;25214;-73
2024/03/16 03:25:49;;;;;;;21.90;16.40;;;;;;;5.03;100.00;100696.93;87181;270;136861;-72
2024/03/16 03:27:51;;;;;;;23.90;17.70;;;;;;;5.03;100.00;100697.45;87069;275;25223;-68
2024/03/16 03:29:53;;;;;;;27.50;18.90;;;;;;;5.04;100.00;100696.42;87163;269;137544;-71
2024/03/16 03:31:57;;;;;;;22.00;17.90;;;;;;;5.04;100.00;100695.58;87260;271;22581;-76
2024/03/16 03:33:58;;;;;;;21.60;17.30;;;;;;;5.02;100.00;100698.04;87314;271;136280;-74
2024/03/16 03:36:02;;;;;;;23.00;17.80;;;;;;;5.00;100.00;100696.52;87231;271;22566;-71
2024/03/16 03:38:07;;;;;;;21.30;17.20;;;;;;;4.97;100.00;100701.71;87390;277;22638;-75
2024/03/16 03:40:09;;;;;;;21.40;16.70;;;;;;;4.93;100.00;100700.00;87230;267;136999;-71
2024/03/16 03:42:11;;;;;;;18.30;15.00;;;;;;;4.92;100.00;100698.33;87280;279;24926;-75
2024/03/16 03:44:24;;;;;;;22.30;17.20;;;;;;;4.93;100.00;100700.02;87183;271;138892;-74
2024/03/16 03:46:39;;;;;;;24.10;17.40;;;;;;;4.93;100.00;100699.40;87349;275;22559;-76
2024/03/16 03:48:49;;;;;;;;;;;;;;;4.97;100.00;100704.14;87199;271;138762;-74
2024/03/16 03:50:56;;;;;;;20.30;15.20;;;;;;;5.01;100.00;100707.64;87423;271;25165;-72
2024/03/16 03:53:04;;;;;;;21.30;15.60;;;;;;;5.03;100.00;100706.96;87163;267;138067;-76
2024/03/16 03:55:06;;;;;;;18.60;14.30;;;;;;;5.02;100.00;100706.66;87518;278;22651;-74
2024/03/16 03:57:10;;;;;;;20.30;15.20;;;;;;;5.05;100.00;100707.46;87303;271;137004;-73
2024/03/16 03:59:15;;;;;;;19.10;14.00;;;;;;;5.07;100.00;100706.57;87327;278;22558;-73
2024/03/16 04:01:17;;;;;;;17.20;14.20;;;;;;;5.10;100.00;100712.52;87073;271;136981;-77
2024/03/16 04:03:20;;;;;;;19.10;15.30;;;;;;;5.10;100.00;100713.73;87451;267;25181;-73
2024/03/16 04:05:22;;;;;;;21.60;15.70;;;;;;;5.08;100.00;100713.16;87250;267;137865;-74
2024/03/16 04:07:23;;;;;;;21.50;15.20;;;;;;;5.09;100.00;100714.89;87425;278;22639;-74
2024/03/16 04:09:25;;;;;;;15.80;13.10;;;;;;;5.09;100.00;100712.77;87345;278;136912;-75
2024/03/16 04:11:27;;;;;;;17.40;12.90;;;;;;;5.07;100.00;100713.60;87167;273;22637;-78
2024/03/16 04:13:29;;;;;;;15.70;13.40;;;;;;;5.06;100.00;100714.75;87223;272;136675;-74
2024/03/16 04:15:31;;;;;;;15.20;12.50;;;;;;;5.05;100.00;100712.36;87331;271;25271;-75
2024/03/16 04:17:34;;;;;;;16.60;13.50;;;;;;;5.07;100.00;100716.41;87165;272;137344;-74
2024/03/16 04:19:36;;;;;;;19.90;13.80;;;;;;;5.08;100.00;100714.38;87428;278;22654;-74
2024/03/16 04:21:38;;;;;;;18.20;15.10;;;;;;;5.07;100.00;100716.60;87344;266;136656;-74
2024/03/16 04:23:40;;;;;;;19.90;14.50;;;;;;;5.05;100.00;100715.26;87323;271;25213;-73
2024/03/16 04:25:42;;;;;;;20.00;16.00;;;;;;;5.03;100.00;100713.98;87249;266;138138;-74
2024/03/16 04:27:45;;;;;;;18.40;14.80;;;;;;;5.03;100.00;100715.77;87434;261;22635;-74
2024/03/16 04:29:47;;;;;;;22.90;16.80;;;;;;;5.03;100.00;100712.40;87133;272;137279;-74
2024/03/16 04:31:49;;;;;;;23.20;16.50;;;;;;;5.04;100.00;100713.05;87287;279;25252;-73
2024/03/16 04:33:51;;;;;;;23.30;16.60;;;;;;;5.05;100.00;100711.56;87342;267;137044;-76
2024/03/16 04:35:53;;;;;;;22.40;18.20;;;;;;;5.06;100.00;100711.27;87431;278;22561;-75
2024/03/16 04:37:55;;;;;;;22.90;17.10;;;;;;;5.06;100.00;100709.12;87466;271;137652;-73
2024/03/16 04:39:58;;;;;;;19.60;14.80;;;;;;;5.09;100.00;100714.39;87387;268;22645;-76
2024/03/16 04:42:00;;;;;;;17.70;14.40;;;;;;;5.11;100.00;100714.82;87318;266;138031;-73
2024/03/16 04:44:02;;;;;;;16.80;14.10;;;;;;;5.15;100.00;100713.45;87356;278;23462;-72
2024/03/16 04:46:05;;;;;;;24.10;14.80;;;;;;;5.17;100.00;100717.48;87264;271;22532;-75
2024/03/16 04:48:10;;;;;;;16.60;13.90;;;;;;;5.17;100.00;100713.91;87032;272;136978;-71
2024/03/16 04:50:15;;;;;;;18.30;15.20;;;;;;;5.17;100.00;100707.98;87334;271;25264;-74
2024/03/16 04:52:16;;;;;;;18.30;13.70;;;;;;;5.12;100.00;100711.23;86929;268;136542;-75
2024/03/16 04:54:18;;;;;;;17.80;14.60;;;;;;;5.07;100.00;100711.85;87295;267;22573;-76
2024/03/16 04:56:20;;;;;;;20.90;15.30;;;;;;;5.05;100.00;100711.02;87200;271;137632;-75
2024/03/16 04:58:22;;;;;;;16.90;13.60;;;;;;;5.03;100.00;100708.73;87469;274;23502;-73
2024/03/16 05:00:24;;;;;;;13.30;11.40;;;;;;;5.03;100.00;100714.17;87317;275;136761;-77
2024/03/16 05:02:27;;;;;;;19.40;13.30;;;;;;;5.05;100.00;100712.26;87428;271;25159;-77
2024/03/16 05:04:29;;;;;;;18.50;14.00;;;;;;;5.08;100.00;100711.23;87136;275;137195;-80
2024/03/16 05:06:34;;;;;;;21.50;14.60;;;;;;;5.14;100.00;100713.73;87455;267;22639;-78
2024/03/16 05:08:37;;;;;;;18.00;13.70;;;;;;;5.20;100.00;100715.27;87220;271;136460;-75
2024/03/16 05:10:39;;;;;;;19.70;14.50;;;;;;;5.24;100.00;100714.84;87259;272;25417;-77
2024/03/16 05:12:41;;;;;;;18.00;13.20;;;;;;;5.26;100.00;100716.05;86970;268;136988;-72
2024/03/16 05:14:43;;;;;;;16.60;12.60;;;;;;;5.28;100.00;100716.64;87177;277;23736;-74
2024/03/16 05:16:45;;;;;;;17.10;13.20;;;;;;;5.27;100.00;100713.17;87073;270;136818;-75
2024/03/16 05:18:47;;;;;;;14.80;12.10;;;;;;;5.28;100.00;100713.30;87274;271;25099;-75
2024/03/16 05:20:50;;;;;;;21.20;15.10;;;;;;;5.26;100.00;100715.36;86997;271;136611;-74
2024/03/16 05:22:52;;;;;;;19.00;13.90;;;;;;;5.25;100.00;100713.19;87311;279;22584;-78
2024/03/16 05:24:54;;;;;;;22.90;16.10;;;;;;;5.22;100.00;100713.65;87190;271;138052;-73
2024/03/16 05:26:56;;;;;;;22.00;16.70;;;;;;;5.17;100.00;100713.54;87303;271;25162;-74
2024/03/16 05:28:58;;;;;;;23.90;17.70;;;;;;;5.12;100.00;100716.67;87117;272;136792;-73
2024/03/16 05:31:00;;;;;;;27.60;18.30;;;;;;;5.09;100.00;100716.80;87230;271;25150;-75
2024/03/16 05:33:02;;;;;;;25.00;16.30;;;;;;;5.07;100.00;100719.12;87246;271;137046;-74
2024/03/16 05:35:07;;;;;;;25.10;18.90;;;;;;;5.08;100.00;100719.40;87238;274;24871;-74
2024/03/16 05:37:09;;;;;;;26.60;17.50;;;;;;;5.08;100.00;100717.09;87373;266;137059;-72
2024/03/16 05:39:11;;;;;;;27.10;18.50;;;;;;;5.09;100.00;100719.11;87678;275;22623;-71
2024/03/16 05:41:14;;;;;;;22.60;17.00;;;;;;;5.12;100.00;100721.06;87444;276;137069;-73
2024/03/16 05:43:16;;;;;;;24.30;17.20;;;;;;;5.17;100.00;100722.06;88705;276;23238;-74
2024/03/16 05:45:18;;;;;;;19.40;16.40;;;;;;;5.20;100.00;100724.09;89324;267;136958;-73
2024/03/16 05:47:23;;;;;;;24.10;16.00;;;;;;;5.22;100.00;100721.23;89402;271;22585;-69
2024/03/16 05:49:26;;;;;;;21.80;15.90;;;;;;;5.25;100.00;100721.81;89205;266;136965;-72
2024/03/16 05:51:28;;;;;;;20.90;17.00;;;;;;;5.29;100.00;100726.27;87750;267;25187;-70
2024/03/16 05:53:31;;;;;;;20.60;16.70;;;;;;;5.31;100.00;100723.54;87824;271;137179;-71
2024/03/16 05:55:33;;;;;;;22.90;16.40;;;;;;;5.32;100.00;100727.54;87543;280;22567;-76
2024/03/16 05:57:34;;;;;;;20.70;15.00;;;;;;;5.32;100.00;100726.44;87796;267;137379;-73
2024/03/16 05:59:36;;;;;;;18.20;14.90;;;;;;;5.33;100.00;100730.11;87462;271;22546;-74
2024/03/16 06:01:38;;;;;;;18.40;15.00;;;;;;;5.32;100.00;100732.80;87690;267;137054;-76
2024/03/16 06:03:40;;;;;;;18.30;15.40;;;;;;;5.32;100.00;100731.77;89584;267;22985;-76
2024/03/16 06:05:46;;;;;;;16.70;14.30;;;;;;;5.32;100.00;100737.20;86829;276;138163;-71
2024/03/16 06:07:49;;;;;;;17.10;13.20;;;;;;;5.33;100.00;100736.25;88247;267;25175;-72
2024/03/16 06:09:51;;;;;;;15.30;12.60;;;;;;;5.35;100.00;100733.55;86955;267;138199;-74
2024/03/16 06:11:53;;;;;;;13.80;11.20;;;;;;;5.37;100.00;100737.05;90168;267;23566;-72
2024/03/16 06:13:55;;;;;;;12.50;10.70;;;;;;;5.38;100.00;100739.83;89904;263;136979;-76
2024/03/16 06:15:57;;;;;;;12.00;10.80;;;;;;;5.36;100.00;100742.08;87445;264;22857;-72
2024/03/16 06:17:59;;;;;;;12.00;10.80;;;;;;;5.34;100.00;100746.34;87217;275;136907;-72
2024/03/16 06:20:04;;;;;;;10.40;9.20;;;;;;;5.33;100.00;100744.36;87446;271;23389;-71
2024/03/16 06:22:07;;;;;;;14.60;11.30;;;;;;;5.31;100.00;100746.34;87468;267;25086;-72
2024/03/16 06:24:10;;;;;;;11.50;10.30;;;;;;;5.30;100.00;100743.94;87309;276;136848;-71
2024/03/16 06:26:17;;;;;;;12.40;11.20;;;;;;;5.26;100.00;100741.10;87218;267;25274;-74
2024/03/16 06:28:21;;;;;;;12.00;10.10;;;;;;;5.22;100.00;100739.80;87154;271;137261;-75
2024/03/16 06:30:27;;;;;;;10.50;9.50;;;;;;;5.19;100.00;100742.81;88515;274;25225;-76
2024/03/16 06:32:34;;;;;;;12.20;11.00;;;;;;;5.19;100.00;100743.73;87137;276;137253;-74
2024/03/16 06:34:37;;;;;;;11.70;10.20;;;;;;;5.20;100.00;100741.70;87522;274;22652;-74
2024/03/16 06:36:39;;;;;;;11.50;8.60;;;;;;;5.23;100.00;100745.95;87029;280;136803;-76
2024/03/16 06:38:42;;;;;;;11.60;10.40;;;;;;;5.24;100.00;100743.71;87761;267;25232;-76
2024/03/16 06:40:45;;;;;;;9.70;8.80;;;;;;;5.27;100.00;100746.45;87101;280;136828;-68
2024/03/16 06:42:49;;;;;;;10.70;9.30;;;;;;;5.31;100.00;100750.34;87753;274;22583;-74
2024/03/16 06:44:51;;;;;;;10.50;8.50;;;;;;;5.33;100.00;100749.94;87355;277;138118;-75
2024/03/16 06:46:53;;;;;;;9.00;7.90;;;;;;;5.37;100.00;100750.15;87318;269;22575;-73
2024/03/16 06:48:55;;;;;;;9.00;8.10;;;;;;;5.40;100.00;100749.61;87125;273;138150;-71
2024/03/16 06:50:58;;;;;;;8.20;7.40;;;;;;;5.46;100.00;100748.36;87152;276;22581;-75
2024/03/16 06:53:00;;;;;;;7.10;6.20;;;;;;;5.56;100.00;100749.69;87059;267;136726;-74
2024/03/16 06:55:03;;;;;;;7.70;6.70;;;;;;;5.62;100.00;100750.01;87068;271;27610;-72
2024/03/16 06:57:05;;;;;;;6.20;5.60;;;;;;;5.65;100.00;100751.52;90041;271;137038;-72
2024/03/16 06:59:07;;;;;;;7.00;6.30;;;;;;;5.70;100.00;100755.81;89090;268;25051;-73
2024/03/16 07:01:12;;;;;;;9.20;7.90;;;;;;;5.73;100.00;100753.77;87091;267;136837;-74
2024/03/16 07:03:18;;;;;;;8.30;7.00;;;;;;;5.73;100.00;100753.25;90072;275;22327;-76
2024/03/16 07:05:20;;;;;;;9.80;8.40;;;;;;;5.78;100.00;100751.71;90038;274;137779;-74
2024/03/16 07:07:23;;;;;;;8.30;7.20;;;;;;;5.83;100.00;100754.89;87685;269;25911;-75
2024/03/16 07:09:24;;;;;;;8.20;7.40;;;;;;;5.89;100.00;100755.77;87264;278;136858;-75
2024/03/16 07:11:26;;;;;;;9.30;7.60;;;;;;;5.96;100.00;100758.32;87183;272;24150;-76
2024/03/16 07:13:28;;;;;;;9.50;7.90;;;;;;;6.00;100.00;100759.45;87062;273;136593;-71
2024/03/16 07:15:33;;;;;;;7.90;6.90;;;;;;;6.03;100.00;100761.13;87230;271;24085;-77
2024/03/16 07:17:35;;;;;;;8.80;6.90;;;;;;;6.02;100.00;100760.86;87426;278;136936;-78
2024/03/16 07:19:38;;;;;;;9.70;7.30;;;;;;;6.03;100.00;100762.02;87363;267;24004;-76
2024/03/16 07:21:40;;;;;;;7.00;6.30;;;;;;;6.03;100.00;100758.85;86983;273;136977;-76
2024/03/16 07:23:43;;;;;;;7.40;6.70;;;;;;;6.04;100.00;100763.19;87203;279;22673;-78
2024/03/16 07:25:51;;;;;;;10.30;6.90;;;;;;;6.07;100.00;100765.60;87029;279;136909;-77
2024/03/16 07:27:53;;;;;;;7.50;6.00;;;;;;;6.09;100.00;100759.66;87146;275;25303;-77
2024/03/16 07:29:55;;;;;;;9.30;6.60;;;;;;;6.12;100.00;100766.19;87088;271;136780;-73
2024/03/16 07:31:57;;;;;;;7.60;6.80;;;;;;;6.11;100.00;100765.52;86998;271;22648;-74
2024/03/16 07:33:59;;;;;;;7.60;6.90;;;;;;;6.09;100.00;100765.00;87026;274;136585;-72
2024/03/16 07:36:04;;;;;;;9.10;6.80;;;;;;;6.11;100.00;100763.23;87125;271;138592;-76
2024/03/16 07:38:05;;;;;;;7.30;6.60;;;;;;;6.18;100.00;100762.39;87060;277;25214;-77
2024/03/16 07:40:13;;;;;;;8.80;6.90;;;;;;;6.30;100.00;100758.96;86945;269;139720;-74
2024/03/16 07:42:15;;;;;;;7.10;6.40;;;;;;;6.38;100.00;100761.27;87424;271;25099;-74
2024/03/16 07:44:17;;;;;;;7.20;6.50;;;;;;;6.44;100.00;100765.27;86981;278;137035;-75
2024/03/16 07:46:19;;;;;;;8.00;7.30;;;;;;;6.54;100.00;100763.14;87054;271;23277;-73
2024/03/16 07:48:22;;;;;;;10.60;7.40;;;;;;;6.66;100.00;100765.03;86892;271;138765;-74
2024/03/16 07:50:25;;;;;;;7.80;7.10;;;;;;;6.77;100.00;100765.02;86968;279;25217;-73
2024/03/16 07:52:30;;;;;;;9.30;8.00;;;;;;;6.83;100.00;100765.67;87366;272;136568;-73
2024/03/16 07:54:31;;;;;;;8.70;6.70;;;;;;;6.87;100.00;100762.28;87061;271;22659;-74
2024/03/16 07:56:33;;;;;;;9.60;8.40;;;;;;;6.89;100.00;100762.84;86873;271;136934;-72
2024/03/16 07:58:37;;;;;;;9.00;8.10;;;;;;;6.94;100.00;100760.83;86977;263;25220;-73
2024/03/16 08:00:39;;;;;;;8.40;7.60;;;;;;;7.02;100.00;100756.20;86861;267;136706;-74
2024/03/16 08:02:41;;;;;;;7.40;6.70;;;;;;;7.08;100.00;100754.73;86997;278;28064;-74
2024/03/16 08:04:43;;;;;;;8.90;6.30;;;;;;;7.14;100.00;100756.61;86893;271;136608;-72
2024/03/16 08:06:45;;;;;;;8.70;7.20;;;;;;;7.15;100.00;100754.55;86858;267;25211;-74
2024/03/16 08:08:47;;;;;;;6.90;6.30;;;;;;;7.09;100.00;100755.30;86940;267;137190;-73
2024/03/16 08:10:50;;;;;;;6.60;6.00;;;;;;;7.04;100.00;100752.80;87009;271;22571;-73
2024/03/16 08:12:52;;;;;;;7.00;6.30;;;;;;;7.05;100.00;100752.38;86814;270;136956;-74
2024/03/16 08:14:54;;;;;;;7.30;6.60;;;;;;;7.06;100.00;100761.66;87268;271;25082;-74
2024/03/16 08:16:56;;;;;;;7.30;6.60;;;;;;;7.07;100.00;100761.35;86880;271;136903;-74
2024/03/16 08:18:58;;;;;;;7.60;6.60;;;;;;;7.04;100.00;100762.21;86923;274;22573;-74
2024/03/16 08:21:00;;;;;;;10.60;7.70;;;;;;;6.96;100.00;100764.17;86726;275;137715;-72
2024/03/16 08:23:02;;;;;;;8.80;7.90;;;;;;;6.90;100.00;100760.63;86790;267;22644;-76
2024/03/16 08:25:06;;;;;;;10.30;8.50;;;;;;;6.90;100.00;100756.21;87235;269;137205;-72
2024/03/16 08:27:08;;;;;;;8.30;7.30;;;;;;;6.99;100.00;100759.50;89182;270;25361;-75
2024/03/16 08:29:09;;;;;;;11.80;8.50;;;;;;;7.12;100.00;100761.17;87271;266;136771;-73
2024/03/16 08:31:12;;;;;;;10.00;9.00;;;;;;;7.22;100.00;100758.13;86964;269;22560;-75
2024/03/16 08:33:14;;;;;;;9.50;8.40;;;;;;;7.28;100.00;100756.17;87519;267;137519;-72
2024/03/16 08:35:17;;;;;;;11.60;9.70;;;;;;;7.35;100.00;100755.85;87013;271;25018;-73
2024/03/16 08:37:18;;;;;;;11.90;10.70;;;;;;;7.39;100.00;100753.98;86664;275;137437;-74
2024/03/16 08:39:23;;;;;;;13.00;10.50;;;;;;;7.42;100.00;100755.33;87843;267;25179;-72
2024/03/16 08:41:25;;;;;;;15.00;11.00;;;;;;;7.43;100.00;100756.43;86913;266;137561;-72
2024/03/16 08:43:27;;;;;;;16.70;11.80;;;;;;;7.38;100.00;100754.67;88809;273;22609;-75
2024/03/16 08:45:30;;;;;;;12.80;10.70;;;;;;;7.29;100.00;100754.66;86911;271;136726;-74
2024/03/16 08:47:33;;;;;;;14.00;10.80;;;;;;;7.26;100.00;100748.77;87412;271;25101;-73
2024/03/16 08:49:35;;;;;;;14.50;12.20;;;;;;;7.32;100.00;100745.60;87090;271;137853;-72
2024/03/16 08:51:37;;;;;;;14.70;13.00;;;;;;;7.42;100.00;100746.52;86881;271;23797;-71
2024/03/16 08:53:39;;;;;;;14.70;11.00;;;;;;;7.54;100.00;100748.75;86758;271;137331;-72
2024/03/16 08:55:41;;;;;;;18.70;14.00;;;;;;;7.68;100.00;100747.66;86789;271;22573;-72
2024/03/16 08:57:42;;;;;;;15.30;13.40;;;;;;;7.79;100.00;100751.52;86799;270;138314;-72
2024/03/16 08:59:44;;;;;;;14.10;12.40;;;;;;;7.79;100.00;100752.42;86983;270;22578;-73
2024/03/16 09:01:46;;;;;;;17.50;13.60;;;;;;;7.77;100.00;100746.70;86867;270;136547;-75
2024/03/16 09:03:49;;;;;;;14.70;12.50;;;;;;;7.77;100.00;100747.30;90067;266;22246;-74
2024/03/16 09:05:51;;;;;;;15.00;12.90;;;;;;;7.74;100.00;100746.91;90016;266;137618;-75
2024/03/16 09:07:53;;;;;;;18.50;13.30;;;;;;;7.74;100.00;100746.53;90060;266;22349;-75
2024/03/16 09:09:57;;;;;;;16.90;14.90;;;;;;;7.83;100.00;100746.79;89868;272;135935;-73
2024/03/16 09:12:00;;;;;;;20.70;13.50;;;;;;;7.96;100.00;100744.02;90120;267;22554;-75
2024/03/16 09:14:02;;;;;;;16.10;13.10;;;;;;;8.04;100.00;100746.80;89901;274;136789;-75
2024/03/16 09:16:05;;;;;;;20.00;14.30;;;;;;;8.04;100.00;100745.77;89883;274;137880;-72
2024/03/16 09:18:08;;;;;;;17.00;14.20;;;;;;;8.06;100.00;100746.23;90126;272;22360;-74
2024/03/16 09:20:10;;;;;;;19.50;13.80;;;;;;;8.14;100.00;100743.23;89762;276;137520;-75
2024/03/16 09:22:13;;;;;;;21.60;15.10;;;;;;;8.22;100.00;100736.75;89780;277;22337;-77
2024/03/16 09:24:16;;;;;;;17.50;14.30;;;;;;;8.29;100.00;100736.70;89930;267;137448;-77